createdAt,value
2019-03-25T00:01:12.019Z,9.96
2019-03-25T00:03:40.564Z,10.06
2019-03-25T00:06:09.043Z,9.79
2019-03-25T00:08:37.523Z,9.74
2019-03-25T00:11:06.148Z,9.85
2019-03-25T00:13:34.627Z,9.91
2019-03-25T00:16:03.188Z,9.81
2019-03-25T00:18:31.668Z,9.80
2019-03-25T00:21:00.163Z,9.64
2019-03-25T00:23:28.665Z,9.60
2019-03-25T00:25:57.147Z,9.56
2019-03-25T00:28:25.695Z,9.78
2019-03-25T00:30:54.177Z,9.83
2019-03-25T00:33:22.660Z,9.91
2019-03-25T00:35:51.153Z,9.97
2019-03-25T00:38:19.730Z,9.82
2019-03-25T00:40:48.212Z,9.66
2019-03-25T00:43:16.722Z,9.86
2019-03-25T00:45:45.203Z,9.83
2019-03-25T00:48:13.770Z,9.87
2019-03-25T00:50:42.251Z,10.07
2019-03-25T00:53:10.752Z,10.03
2019-03-25T00:55:39.260Z,9.94
2019-03-25T00:58:07.776Z,9.79
2019-03-25T01:00:36.335Z,9.78
2019-03-25T01:03:05.058Z,9.85
2019-03-25T01:05:33.937Z,9.88
2019-03-25T01:08:02.494Z,9.84
2019-03-25T01:10:31.006Z,9.96
2019-03-25T01:12:59.482Z,9.78
2019-03-25T01:15:27.976Z,9.52
2019-03-25T01:17:56.455Z,9.47
2019-03-25T01:20:25.038Z,9.42
2019-03-25T01:22:53.620Z,9.46
2019-03-25T01:25:22.136Z,9.55
2019-03-25T01:27:50.615Z,9.39
2019-03-25T01:30:19.182Z,9.19
2019-03-25T01:32:47.663Z,9.02
2019-03-25T01:35:16.186Z,9.39
2019-03-25T01:37:44.660Z,9.30
2019-03-25T01:40:14.473Z,9.12
2019-03-25T01:42:42.961Z,8.99
2019-03-25T01:45:11.677Z,9.18
2019-03-25T01:47:40.173Z,8.88
2019-03-25T01:50:08.804Z,9.19
2019-03-25T01:52:37.307Z,8.92
2019-03-25T01:55:13.497Z,9.01
2019-03-25T01:57:36.435Z,9.30
2019-03-25T02:00:07.373Z,9.33
2019-03-25T02:02:35.841Z,8.91
2019-03-25T02:05:05.579Z,9.05
2019-03-25T02:07:34.164Z,9.10
2019-03-25T02:10:02.925Z,8.98
2019-03-25T02:12:31.396Z,9.04
2019-03-25T02:14:59.881Z,9.03
2019-03-25T02:17:28.379Z,9.18
2019-03-25T02:19:56.847Z,9.18
2019-03-25T02:22:25.485Z,9.07
2019-03-25T02:24:54.012Z,9.08
2019-03-25T02:27:22.528Z,8.98
2019-03-25T02:29:51.024Z,8.97
2019-03-25T02:32:19.586Z,8.81
2019-03-25T02:34:48.103Z,8.88
2019-03-25T02:37:16.583Z,8.83
2019-03-25T02:39:45.077Z,8.89
2019-03-25T02:42:13.571Z,8.79
2019-03-25T02:44:42.107Z,8.53
2019-03-25T02:47:10.545Z,8.73
2019-03-25T02:49:39.034Z,8.79
2019-03-25T02:52:07.517Z,8.97
2019-03-25T02:54:36.037Z,8.87
2019-03-25T02:57:04.532Z,9.16
2019-03-25T02:59:33.034Z,9.26
2019-03-25T03:02:01.513Z,9.30
2019-03-25T03:04:30.016Z,9.43
2019-03-25T03:06:58.565Z,9.30
2019-03-25T03:09:27.047Z,9.29
2019-03-25T03:11:55.537Z,9.34
2019-03-25T03:14:24.024Z,9.24
2019-03-25T03:16:52.535Z,9.51
2019-03-25T03:19:21.092Z,9.50
2019-03-25T03:21:49.707Z,9.27
2019-03-25T03:24:18.187Z,9.26
2019-03-25T03:26:46.692Z,9.31
2019-03-25T03:29:15.163Z,9.01
2019-03-25T03:31:43.678Z,8.98
2019-03-25T03:34:12.155Z,9.41
2019-03-25T03:36:40.666Z,9.46
2019-03-25T03:39:09.180Z,9.48
2019-03-25T03:41:37.665Z,9.33
2019-03-25T03:44:06.197Z,9.52
2019-03-25T03:46:34.690Z,9.64
2019-03-25T03:49:03.170Z,9.51
2019-03-25T03:51:31.833Z,9.52
2019-03-25T03:54:00.574Z,9.54
2019-03-25T03:56:30.878Z,9.74
2019-03-25T03:59:00.865Z,9.43
2019-03-25T04:01:29.443Z,9.69
2019-03-25T04:03:57.927Z,9.73
2019-03-25T04:06:26.430Z,9.69
2019-03-25T04:08:54.927Z,9.73
2019-03-25T04:11:23.418Z,9.57
2019-03-25T04:13:51.930Z,9.66
2019-03-25T04:16:20.421Z,9.78
2019-03-25T04:18:48.902Z,9.67
2019-03-25T04:21:17.504Z,9.79
2019-03-25T04:23:46.536Z,9.85
2019-03-25T04:26:27.748Z,9.79
2019-03-25T04:28:45.398Z,9.74
2019-03-25T04:31:13.882Z,9.64
2019-03-25T04:33:43.881Z,9.66
2019-03-25T04:36:12.672Z,9.38
2019-03-25T04:38:41.201Z,9.42
2019-03-25T04:41:09.689Z,9.42
2019-03-25T04:43:38.165Z,9.39
2019-03-25T04:46:06.691Z,9.26
2019-03-25T04:48:35.165Z,9.31
2019-03-25T04:51:03.681Z,9.21
2019-03-25T04:53:32.162Z,9.37
2019-03-25T04:56:00.677Z,9.42
2019-03-25T04:58:29.156Z,9.28
2019-03-25T05:00:58.947Z,9.24
2019-03-25T05:03:27.460Z,9.16
2019-03-25T05:05:55.941Z,9.27
2019-03-25T05:08:24.424Z,9.23
2019-03-25T05:10:52.929Z,9.25
2019-03-25T05:13:21.439Z,9.41
2019-03-25T05:15:49.936Z,9.38
2019-03-25T05:18:18.414Z,9.33
2019-03-25T05:20:46.897Z,9.45
2019-03-25T05:23:15.399Z,9.44
2019-03-25T05:25:43.875Z,9.54
2019-03-25T05:28:12.413Z,9.72
2019-03-25T05:30:40.900Z,9.60
2019-03-25T05:33:09.392Z,9.61
2019-03-25T05:35:37.888Z,9.48
2019-03-25T05:38:06.376Z,9.18
2019-03-25T05:40:34.877Z,9.06
2019-03-25T05:43:03.921Z,9.16
2019-03-25T05:45:32.501Z,8.91
2019-03-25T05:48:00.983Z,8.67
2019-03-25T05:50:29.468Z,8.74
2019-03-25T05:52:57.987Z,8.91
2019-03-25T05:55:26.467Z,8.81
2019-03-25T05:57:54.980Z,9.07
2019-03-25T06:00:25.098Z,9.27
2019-03-25T06:02:53.575Z,9.21
2019-03-25T06:05:22.069Z,9.29
2019-03-25T06:07:50.548Z,9.06
2019-03-25T06:10:19.065Z,8.97
2019-03-25T06:12:47.543Z,8.82
2019-03-25T06:15:17.433Z,9.13
2019-03-25T06:17:45.914Z,8.90
2019-03-25T06:20:14.839Z,8.70
2019-03-25T06:22:43.487Z,9.03
2019-03-25T06:25:12.065Z,9.19
2019-03-25T06:27:40.548Z,8.96
2019-03-25T06:30:10.405Z,8.62
2019-03-25T06:32:38.885Z,8.97
2019-03-25T06:35:09.139Z,8.71
2019-03-25T06:37:37.705Z,8.88
2019-03-25T06:40:09.495Z,8.93
2019-03-25T06:42:37.970Z,9.21
2019-03-25T06:45:09.989Z,9.28
2019-03-25T06:47:38.471Z,9.25
2019-03-25T06:50:08.297Z,9.39
2019-03-25T06:52:36.978Z,9.31
2019-03-25T06:55:07.933Z,8.98
2019-03-25T06:57:38.499Z,9.18
2019-03-25T07:00:08.271Z,9.39
2019-03-25T07:02:36.746Z,9.33
2019-03-25T07:05:07.012Z,9.61
2019-03-25T07:07:35.512Z,9.66
2019-03-25T07:10:05.163Z,9.28
2019-03-25T07:12:33.686Z,9.69
2019-03-25T07:15:02.168Z,9.81
2019-03-25T07:17:30.653Z,10.00
2019-03-25T07:19:59.149Z,9.45
2019-03-25T07:22:27.672Z,9.98
2019-03-25T07:24:56.185Z,10.25
2019-03-25T07:27:24.674Z,10.23
2019-03-25T07:29:53.157Z,10.53
2019-03-25T07:32:21.658Z,10.76
2019-03-25T07:34:50.154Z,10.40
2019-03-25T07:37:18.647Z,10.47
2019-03-25T07:39:47.128Z,10.88
2019-03-25T07:42:15.643Z,10.90
2019-03-25T07:44:44.230Z,10.90
2019-03-25T07:47:12.742Z,10.91
2019-03-25T07:49:41.243Z,10.90
2019-03-25T07:52:09.762Z,10.69
2019-03-25T07:54:38.281Z,11.04
2019-03-25T07:57:06.770Z,10.63
2019-03-25T07:59:35.270Z,10.73
2019-03-25T08:02:03.760Z,10.51
2019-03-25T08:04:32.284Z,10.71
2019-03-25T08:07:00.773Z,10.89
2019-03-25T08:09:29.305Z,10.34
2019-03-25T08:11:57.823Z,10.21
2019-03-25T08:14:26.342Z,10.32
2019-03-25T08:16:54.838Z,10.55
2019-03-25T08:19:23.320Z,10.73
2019-03-25T08:21:51.834Z,10.27
2019-03-25T08:24:21.572Z,10.59
2019-03-25T08:26:50.026Z,10.85
2019-03-25T08:29:18.548Z,10.72
2019-03-25T08:31:47.078Z,10.41
2019-03-25T08:34:15.584Z,10.34
2019-03-25T08:36:44.093Z,10.90
2019-03-25T08:39:12.580Z,11.51
2019-03-25T08:41:41.072Z,11.54
2019-03-25T08:44:09.567Z,11.80
2019-03-25T08:46:38.083Z,11.83
2019-03-25T08:49:06.639Z,12.00
2019-03-25T08:51:35.137Z,11.53
2019-03-25T08:54:03.721Z,11.51
2019-03-25T08:56:32.203Z,11.57
2019-03-25T08:59:00.796Z,11.55
2019-03-25T09:01:29.313Z,11.43
2019-03-25T09:03:57.799Z,11.56
2019-03-25T09:06:26.372Z,11.20
2019-03-25T09:08:54.956Z,11.34
2019-03-25T09:11:23.474Z,11.94
2019-03-25T09:13:51.956Z,11.90
2019-03-25T09:16:20.590Z,11.74
2019-03-25T09:18:49.109Z,11.38
2019-03-25T09:21:17.626Z,11.54
2019-03-25T09:23:46.182Z,11.65
2019-03-25T09:26:14.744Z,12.19
2019-03-25T09:28:43.224Z,11.74
2019-03-25T09:31:13.656Z,11.87
2019-03-25T09:33:43.717Z,11.56
2019-03-25T09:36:12.466Z,11.67
2019-03-25T09:38:41.032Z,11.63
2019-03-25T09:41:09.776Z,11.62
2019-03-25T09:43:38.424Z,10.64
2019-03-25T09:46:06.974Z,10.91
2019-03-25T09:48:35.469Z,11.04
2019-03-25T09:51:04.494Z,10.03
2019-03-25T09:53:33.096Z,10.02
2019-03-25T09:56:01.614Z,10.96
2019-03-25T09:58:36.229Z,10.58
2019-03-25T10:01:00.414Z,10.86
2019-03-25T10:03:28.909Z,10.64
2019-03-25T10:05:57.689Z,10.84
2019-03-25T10:08:26.168Z,12.23
2019-03-25T10:10:54.683Z,13.20
2019-03-25T10:13:23.257Z,13.39
2019-03-25T10:15:51.769Z,13.22
2019-03-25T10:18:20.285Z,11.95
2019-03-25T10:20:48.778Z,12.22
2019-03-25T10:23:17.292Z,11.41
2019-03-25T10:25:45.783Z,11.56
2019-03-25T10:28:14.278Z,10.92
2019-03-25T10:30:42.788Z,10.66
2019-03-25T10:33:11.440Z,10.36
2019-03-25T10:35:40.012Z,9.63
2019-03-25T10:38:19.150Z,9.22
2019-03-25T10:40:38.737Z,9.52
2019-03-25T10:43:07.219Z,10.04
2019-03-25T10:45:35.810Z,10.22
2019-03-25T10:48:04.430Z,11.35
2019-03-25T10:50:32.944Z,12.10
2019-03-25T10:53:01.430Z,12.14
2019-03-25T10:55:29.941Z,12.36
2019-03-25T10:57:58.423Z,13.17
2019-03-25T11:00:26.938Z,14.02
2019-03-25T11:02:55.578Z,13.76
2019-03-25T11:05:24.096Z,13.77
2019-03-25T11:07:52.710Z,14.03
2019-03-25T11:10:21.525Z,13.25
2019-03-25T11:12:50.037Z,13.48
2019-03-25T11:15:18.886Z,13.46
2019-03-25T11:17:47.460Z,14.24
2019-03-25T11:20:16.587Z,14.05
2019-03-25T11:22:45.146Z,13.31
2019-03-25T11:25:14.213Z,12.98
2019-03-25T11:27:42.783Z,13.55
2019-03-25T11:30:13.035Z,13.41
2019-03-25T11:32:41.550Z,12.50
2019-03-25T11:35:10.807Z,12.75
2019-03-25T11:37:39.369Z,13.01
2019-03-25T11:40:09.515Z,12.27
2019-03-25T11:42:37.993Z,13.10
2019-03-25T11:45:08.822Z,12.94
2019-03-25T11:47:37.438Z,12.31
2019-03-25T11:50:08.744Z,12.81
2019-03-25T11:52:37.240Z,12.33
2019-03-25T11:55:07.705Z,10.97
2019-03-25T11:57:36.253Z,9.44
2019-03-25T12:00:07.961Z,8.98
2019-03-25T12:02:36.571Z,8.45
2019-03-25T12:05:07.123Z,8.93
2019-03-25T12:07:35.900Z,9.08
2019-03-25T12:10:06.248Z,9.18
2019-03-25T12:12:34.726Z,9.78
2019-03-25T12:15:03.503Z,10.05
2019-03-25T12:17:31.976Z,10.34
2019-03-25T12:20:00.568Z,10.56
2019-03-25T12:22:28.979Z,10.27
2019-03-25T12:24:57.455Z,10.61
2019-03-25T12:27:26.016Z,10.19
2019-03-25T12:29:54.534Z,10.56
2019-03-25T12:32:23.072Z,10.29
2019-03-25T12:34:51.560Z,10.14
2019-03-25T12:37:20.101Z,10.96
2019-03-25T12:39:48.605Z,11.16
2019-03-25T12:42:17.074Z,12.35
2019-03-25T12:44:45.560Z,12.89
2019-03-25T12:47:14.168Z,12.61
2019-03-25T12:49:42.639Z,12.42
2019-03-25T12:52:11.110Z,11.72
2019-03-25T12:54:39.590Z,10.83
2019-03-25T12:57:08.128Z,10.64
2019-03-25T12:59:41.244Z,10.85
2019-03-25T13:02:06.798Z,11.09
2019-03-25T13:04:35.301Z,10.87
2019-03-25T13:07:03.873Z,10.78
2019-03-25T13:09:32.349Z,10.95
2019-03-25T13:12:00.849Z,11.06
2019-03-25T13:14:29.328Z,11.15
2019-03-25T13:16:57.800Z,11.57
2019-03-25T13:19:26.297Z,11.58
2019-03-25T13:21:54.769Z,12.05
2019-03-25T13:24:23.252Z,12.52
2019-03-25T13:26:51.723Z,12.76
2019-03-25T13:29:20.205Z,12.61
2019-03-25T13:31:48.691Z,12.15
2019-03-25T13:34:17.284Z,12.07
2019-03-25T13:36:45.767Z,11.66
2019-03-25T13:39:14.323Z,12.11
2019-03-25T13:41:42.820Z,12.51
2019-03-25T13:44:11.305Z,12.26
2019-03-25T13:46:39.777Z,12.15
2019-03-25T13:49:08.285Z,12.35
2019-03-25T13:51:36.786Z,12.01
2019-03-25T13:54:06.987Z,11.71
2019-03-25T13:56:35.760Z,11.91
2019-03-25T13:59:04.300Z,11.65
2019-03-25T14:01:32.803Z,11.82
2019-03-25T14:04:01.374Z,11.79
2019-03-25T14:06:29.943Z,11.31
2019-03-25T14:08:58.446Z,10.60
2019-03-25T14:11:26.999Z,10.92
2019-03-25T14:13:55.483Z,11.13
2019-03-25T14:16:25.468Z,10.99
2019-03-25T14:18:54.025Z,10.47
2019-03-25T14:21:22.483Z,9.52
2019-03-25T14:23:50.973Z,8.98
2019-03-25T14:26:19.547Z,8.24
2019-03-25T14:28:48.015Z,7.97
2019-03-25T14:31:16.565Z,7.52
2019-03-25T14:33:45.302Z,7.25
2019-03-25T14:36:13.804Z,7.60
2019-03-25T14:38:42.385Z,7.12
2019-03-25T14:41:10.854Z,6.82
2019-03-25T14:43:39.356Z,5.75
2019-03-25T14:46:07.985Z,5.39
2019-03-25T14:48:36.462Z,5.20
2019-03-25T14:51:05.118Z,5.28
2019-03-25T14:53:33.620Z,5.42
2019-03-25T14:56:02.115Z,5.35
2019-03-25T14:58:30.582Z,5.18
2019-03-25T15:00:59.063Z,5.66
2019-03-25T15:03:27.544Z,5.22
2019-03-25T15:05:56.016Z,5.22
2019-03-25T15:08:24.480Z,5.71
2019-03-25T15:10:53.898Z,5.25
2019-03-25T15:13:22.461Z,5.03
2019-03-25T15:15:50.939Z,5.08
2019-03-25T15:18:19.403Z,5.03
2019-03-25T15:20:47.867Z,5.09
2019-03-25T15:23:16.351Z,5.36
2019-03-25T15:25:45.387Z,5.61
2019-03-25T15:28:13.954Z,6.02
2019-03-25T15:30:42.693Z,6.37
2019-03-25T15:33:11.169Z,5.76
2019-03-25T15:35:39.710Z,6.15
2019-03-25T15:38:08.270Z,6.25
2019-03-25T15:40:36.814Z,6.54
2019-03-25T15:43:05.470Z,6.58
2019-03-25T15:45:33.970Z,6.41
2019-03-25T15:48:02.971Z,6.12
2019-03-25T15:50:31.466Z,6.78
2019-03-25T15:52:59.932Z,6.88
2019-03-25T15:55:28.504Z,6.74
2019-03-25T15:57:56.967Z,6.80
2019-03-25T16:00:25.681Z,6.83
2019-03-25T16:02:54.193Z,6.04
2019-03-25T16:05:22.744Z,6.82
2019-03-25T16:07:51.207Z,7.32
2019-03-25T16:10:21.728Z,6.62
2019-03-25T16:12:50.195Z,6.36
2019-03-25T16:15:37.981Z,6.35
2019-03-25T16:18:08.056Z,6.54
2019-03-25T16:20:36.588Z,6.65
2019-03-25T16:23:05.293Z,6.68
2019-03-25T16:25:33.847Z,6.85
2019-03-25T16:28:02.316Z,7.22
2019-03-25T16:30:30.803Z,6.89
2019-03-25T16:32:59.305Z,7.01
2019-03-25T16:35:27.817Z,7.08
2019-03-25T16:37:56.629Z,7.11
2019-03-25T16:40:25.766Z,7.00
2019-03-25T16:42:54.235Z,6.99
2019-03-25T16:45:22.707Z,6.93
2019-03-25T16:47:51.208Z,6.92
2019-03-25T16:50:19.674Z,6.81
2019-03-25T16:52:48.156Z,6.99
2019-03-25T16:55:16.649Z,7.15
2019-03-25T16:57:45.116Z,7.07
2019-03-25T17:00:13.862Z,6.94
2019-03-25T17:02:42.334Z,6.64
2019-03-25T17:05:11.067Z,6.64
2019-03-25T17:07:39.550Z,6.54
2019-03-25T17:10:08.273Z,6.58
2019-03-25T17:12:38.434Z,6.62
2019-03-25T17:15:10.335Z,6.63
2019-03-25T17:17:38.159Z,6.57
2019-03-25T17:20:07.194Z,5.88
2019-03-25T17:22:35.696Z,5.86
2019-03-25T17:25:05.806Z,5.75
2019-03-25T17:27:34.293Z,6.20
2019-03-25T17:30:02.871Z,6.10
2019-03-25T17:32:31.333Z,5.81
2019-03-25T17:34:59.834Z,5.56
2019-03-25T17:37:28.339Z,5.88
2019-03-25T17:39:56.807Z,6.05
2019-03-25T17:42:25.273Z,6.18
2019-03-25T17:44:53.764Z,5.96
2019-03-25T17:47:22.235Z,5.90
2019-03-25T17:49:50.711Z,5.32
2019-03-25T17:52:19.185Z,5.24
2019-03-25T17:54:47.680Z,5.71
2019-03-25T17:57:18.194Z,5.56
2019-03-25T17:59:46.712Z,5.60
2019-03-25T18:02:15.194Z,5.75
2019-03-25T18:04:43.678Z,5.69
2019-03-25T18:07:12.186Z,5.88
2019-03-25T18:09:40.661Z,5.71
2019-03-25T18:12:09.244Z,5.44
2019-03-25T18:14:37.712Z,5.29
2019-03-25T18:17:06.282Z,5.35
2019-03-25T18:19:34.755Z,5.32
2019-03-25T18:22:04.906Z,5.50
2019-03-25T18:24:33.375Z,5.06
2019-03-25T18:27:01.851Z,4.97
2019-03-25T18:29:30.364Z,5.37
2019-03-25T18:32:00.738Z,5.60
2019-03-25T18:34:29.243Z,5.53
2019-03-25T18:36:57.728Z,5.45
2019-03-25T18:39:26.231Z,5.52
2019-03-25T18:41:56.214Z,5.45
2019-03-25T18:44:24.875Z,5.35
2019-03-25T18:46:53.419Z,5.44
2019-03-25T18:49:21.927Z,5.28
2019-03-25T18:51:50.399Z,5.42
2019-03-25T18:54:19.101Z,5.48
2019-03-25T18:56:47.728Z,5.17
2019-03-25T18:59:16.269Z,5.38
2019-03-25T19:01:54.107Z,5.01
2019-03-25T19:04:15.009Z,5.16
2019-03-25T19:06:45.300Z,5.46
2019-03-25T19:09:13.808Z,5.43
2019-03-25T19:11:42.293Z,5.28
2019-03-25T19:14:10.766Z,5.40
2019-03-25T19:16:39.272Z,5.22
2019-03-25T19:19:07.768Z,5.06
2019-03-25T19:21:36.225Z,5.25
2019-03-25T19:24:04.705Z,5.20
2019-03-25T19:26:33.256Z,5.23
2019-03-25T19:29:01.850Z,5.05
2019-03-25T19:31:30.355Z,4.99
2019-03-25T19:33:58.837Z,5.11
2019-03-25T19:36:27.321Z,5.39
2019-03-25T19:38:55.785Z,5.34
2019-03-25T19:41:32.121Z,5.44
2019-03-25T19:43:54.488Z,5.58
2019-03-25T19:46:23.229Z,5.48
2019-03-25T19:48:51.706Z,5.28
2019-03-25T19:51:20.198Z,5.28
2019-03-25T19:53:48.690Z,5.37
2019-03-25T19:56:17.181Z,5.46
2019-03-25T19:58:45.666Z,5.49
2019-03-25T20:01:14.177Z,5.56
2019-03-25T20:03:42.780Z,5.61
2019-03-25T20:06:11.308Z,5.57
2019-03-25T20:08:39.889Z,5.53
2019-03-25T20:11:08.433Z,5.77
2019-03-25T20:13:36.968Z,5.71
2019-03-25T20:16:05.505Z,5.59
2019-03-25T20:18:33.991Z,5.46
2019-03-25T20:21:04.863Z,5.51
2019-03-25T20:23:33.338Z,5.60
2019-03-25T20:26:01.907Z,5.44
2019-03-25T20:28:31.002Z,5.27
2019-03-25T20:30:59.493Z,5.03
2019-03-25T20:33:27.950Z,5.20
2019-03-25T20:35:56.409Z,4.79
2019-03-25T20:38:25.140Z,4.64
2019-03-25T20:40:53.583Z,4.54
2019-03-25T20:43:22.043Z,4.41
2019-03-25T20:45:50.528Z,4.52
2019-03-25T20:48:19.006Z,4.38
2019-03-25T20:50:47.521Z,4.52
2019-03-25T20:53:15.993Z,4.67
2019-03-25T20:55:45.555Z,4.79
2019-03-25T20:58:14.048Z,4.75
2019-03-25T21:00:53.367Z,4.81
2019-03-25T21:03:21.890Z,4.73
2019-03-25T21:05:50.394Z,4.51
2019-03-25T21:08:19.055Z,4.38
2019-03-25T21:10:47.650Z,4.22
2019-03-25T21:13:16.225Z,4.35
2019-03-25T21:15:44.808Z,4.47
2019-03-25T21:18:13.351Z,4.71
2019-03-25T21:20:41.920Z,4.29
2019-03-25T21:23:10.356Z,4.62
2019-03-25T21:25:38.858Z,4.21
2019-03-25T21:28:07.420Z,4.11
2019-03-25T21:30:47.289Z,4.18
2019-03-25T21:33:06.375Z,3.65
2019-03-25T21:35:34.880Z,3.97
2019-03-25T21:38:03.547Z,3.99
2019-03-25T21:40:32.124Z,3.42
2019-03-25T21:43:00.705Z,3.96
2019-03-25T21:45:29.174Z,4.07
2019-03-25T21:47:57.678Z,4.06
2019-03-25T21:50:26.142Z,4.07
2019-03-25T21:52:54.620Z,4.42
2019-03-25T21:55:23.174Z,4.66
2019-03-25T21:57:51.670Z,4.53
2019-03-25T22:00:21.150Z,4.13
2019-03-25T22:02:49.652Z,4.38
2019-03-25T22:05:18.187Z,4.31
2019-03-25T22:07:46.687Z,4.16
2019-03-25T22:10:15.324Z,4.36
2019-03-25T22:12:43.820Z,4.55
2019-03-25T22:15:12.755Z,4.80
2019-03-25T22:17:41.243Z,4.46
2019-03-25T22:20:10.755Z,4.54
2019-03-25T22:22:39.287Z,4.50
2019-03-25T22:25:09.422Z,4.40
2019-03-25T22:27:37.893Z,4.19
2019-03-25T22:30:08.128Z,4.30
2019-03-25T22:32:36.664Z,4.42
2019-03-25T22:35:06.386Z,4.08
2019-03-25T22:37:35.236Z,3.98
2019-03-25T22:40:05.481Z,4.19
2019-03-25T22:42:34.028Z,4.20
2019-03-25T22:45:03.416Z,4.29
2019-03-25T22:47:31.911Z,4.20
2019-03-25T22:50:00.494Z,4.34
2019-03-25T22:52:28.958Z,4.42
2019-03-25T22:54:57.429Z,4.47
2019-03-25T22:57:25.918Z,4.40
2019-03-25T22:59:54.382Z,4.46
2019-03-25T23:02:22.881Z,4.57
2019-03-25T23:04:51.348Z,4.88
2019-03-25T23:07:19.846Z,4.96
2019-03-25T23:09:48.309Z,4.86
2019-03-25T23:12:16.837Z,4.96
2019-03-25T23:14:45.270Z,4.38
2019-03-25T23:17:13.763Z,4.09
2019-03-25T23:19:43.303Z,4.31
2019-03-25T23:22:11.773Z,4.41
2019-03-25T23:24:40.240Z,4.56
2019-03-25T23:27:08.734Z,4.88
2019-03-25T23:29:37.192Z,5.19
2019-03-25T23:32:05.686Z,4.80
2019-03-25T23:34:34.149Z,5.08
2019-03-25T23:37:02.659Z,5.17
2019-03-25T23:39:31.123Z,5.01
2019-03-25T23:41:59.694Z,5.29
2019-03-25T23:44:28.167Z,5.12
2019-03-25T23:46:56.648Z,5.01
2019-03-25T23:49:25.129Z,4.84
2019-03-25T23:51:53.738Z,4.82
2019-03-25T23:54:22.286Z,5.29
2019-03-25T23:56:50.790Z,5.15
2019-03-25T23:59:19.288Z,5.01
